Time;durP1;ratioP1;P1;durP2;ratioP2;P2;SDS_P1;SDS_P2;PMS_P1;PMS_P2;Temp;Humidity;BMP_temperature;BMP_pressure;BME280_temperature;BME280_humidity;BME280_pressure;Samples;Min_cycle;Max_cycle;Signal;HPM_P1;HPM_P2
2021/05/09 00:01:24;;;;;;;8.48;4.68;;;11.00;99.90;;;;;;6213808;23;20443;-88
2021/05/09 00:03:50;;;;;;;10.15;4.57;;;11.00;99.90;;;;;;6241291;23;20090;-88
2021/05/09 00:06:17;;;;;;;7.60;4.93;;;11.00;99.90;;;;;;6214507;23;20012;-87
2021/05/09 00:08:42;;;;;;;10.98;5.13;;;10.90;99.90;;;;;;6241717;23;20016;-88
2021/05/09 00:11:09;;;;;;;6.55;4.90;;;10.90;99.90;;;;;;6215404;23;20030;-87
2021/05/09 00:13:35;;;;;;;8.02;5.45;;;10.90;99.90;;;;;;6240899;23;20090;-88
2021/05/09 00:16:01;;;;;;;8.90;5.32;;;10.90;99.90;;;;;;6242151;23;20016;-88
2021/05/09 00:18:27;;;;;;;8.75;4.80;;;10.90;99.90;;;;;;6213911;23;20024;-87
2021/05/09 00:20:55;;;;;;;9.48;5.13;;;10.90;99.90;;;;;;6241435;23;20016;-87
2021/05/09 00:23:21;;;;;;;5.70;5.15;;;10.80;99.90;;;;;;6213838;23;20024;-87
2021/05/09 00:25:51;;;;;;;7.70;5.13;;;10.80;99.90;;;;;;6241687;23;20444;-87
2021/05/09 00:28:17;;;;;;;7.00;5.35;;;10.70;99.90;;;;;;6240937;23;20099;-87
2021/05/09 00:30:43;;;;;;;8.07;4.78;;;10.70;99.90;;;;;;6189442;23;20078;-87
2021/05/09 00:33:09;;;;;;;7.60;5.05;;;10.50;99.90;;;;;;6215137;23;20017;-87
2021/05/09 00:35:35;;;;;;;8.55;4.78;;;10.50;99.90;;;;;;6241120;23;20066;-87
2021/05/09 00:38:01;;;;;;;7.53;5.22;;;10.40;99.90;;;;;;6215046;23;20024;-87
2021/05/09 00:40:27;;;;;;;7.70;4.70;;;10.40;99.90;;;;;;6213828;23;20070;-87
2021/05/09 00:42:56;;;;;;;8.50;5.20;;;10.30;99.90;;;;;;6215216;23;20437;-87
2021/05/09 00:45:23;;;;;;;9.50;5.60;;;10.30;99.90;;;;;;6213213;22;20476;-88
2021/05/09 00:47:49;;;;;;;10.75;4.95;;;10.30;99.90;;;;;;6224568;23;20450;-88
2021/05/09 00:50:17;;;;;;;9.38;5.13;;;10.20;99.90;;;;;;6214905;23;20016;-88
2021/05/09 00:52:46;;;;;;;7.90;5.05;;;10.10;99.90;;;;;;6240980;23;20020;-88
2021/05/09 00:55:13;;;;;;;8.27;5.40;;;10.10;99.90;;;;;;6189793;23;20020;-88
2021/05/09 00:57:41;;;;;;;10.02;5.32;;;10.00;99.90;;;;;;6213799;23;20043;-87
2021/05/09 01:00:10;;;;;;;7.45;5.32;;;10.00;99.90;;;;;;6241357;23;20020;-88
2021/05/09 01:02:39;;;;;;;6.65;5.22;;;10.00;99.90;;;;;;6214421;23;20012;-87
2021/05/09 01:05:05;;;;;;;8.95;5.75;;;10.00;99.90;;;;;;6242875;23;20020;-87
2021/05/09 01:07:33;;;;;;;8.23;5.47;;;10.00;99.90;;;;;;6240829;23;20103;-87
2021/05/09 01:10:09;;;;;;;8.43;5.30;;;10.00;99.90;;;;;;6226505;23;20061;-87
2021/05/09 01:12:37;;;;;;;8.15;6.07;;;10.10;99.90;;;;;;6224078;23;20330;-87
2021/05/09 01:15:04;;;;;;;14.88;4.63;;;10.00;99.90;;;;;;6214591;23;20114;-86
2021/05/09 01:17:31;;;;;;;13.98;6.05;;;10.00;99.90;;;;;;6213827;23;20526;-86
2021/05/09 01:20:15;;;;;;;11.57;5.90;;;10.00;99.90;;;;;;6241693;23;20030;-87
2021/05/09 01:22:43;;;;;;;9.52;5.60;;;10.00;99.90;;;;;;6214021;23;20036;-87
2021/05/09 01:25:10;;;;;;;11.18;6.18;;;10.00;99.90;;;;;;6241930;23;20427;-88
2021/05/09 01:27:36;;;;;;;10.63;5.82;;;9.90;99.90;;;;;;6213528;23;20097;-87
2021/05/09 01:30:05;;;;;;;11.82;5.82;;;9.90;99.90;;;;;;6215076;23;20442;-87
2021/05/09 01:32:31;;;;;;;8.93;5.97;;;9.90;99.90;;;;;;6214017;23;20024;-87
2021/05/09 01:34:57;;;;;;;10.80;5.07;;;9.80;99.90;;;;;;6214932;23;20338;-87
2021/05/09 01:37:23;;;;;;;7.18;4.75;;;9.80;99.90;;;;;;6240969;23;20381;-87
2021/05/09 01:39:48;;;;;;;8.95;5.88;;;9.70;99.90;;;;;;6213763;23;20568;-87
2021/05/09 01:42:14;;;;;;;10.55;5.68;;;9.70;99.90;;;;;;6189022;23;20382;-87
2021/05/09 01:44:51;;;;;;;10.55;5.88;;;9.60;99.90;;;;;;6190674;23;20016;-86
2021/05/09 01:47:17;;;;;;;13.23;5.97;;;9.60;99.90;;;;;;6241377;22;20012;-87
2021/05/09 01:49:44;;;;;;;13.93;6.25;;;9.60;99.90;;;;;;6240051;23;20582;-87
2021/05/09 01:52:10;;;;;;;12.63;6.00;;;9.60;99.90;;;;;;6214630;23;20100;-87
2021/05/09 01:54:36;;;;;;;11.18;5.57;;;9.50;99.90;;;;;;6240320;23;20073;-88
2021/05/09 01:57:02;;;;;;;11.57;6.07;;;9.50;99.90;;;;;;6241746;23;20016;-87
2021/05/09 01:59:29;;;;;;;11.20;5.50;;;9.50;99.90;;;;;;6240301;23;20050;-86
2021/05/09 02:01:58;;;;;;;8.60;5.75;;;9.50;99.90;;;;;;6241243;23;20047;-87
2021/05/09 02:04:24;;;;;;;11.95;5.55;;;9.50;99.90;;;;;;6215366;23;20039;-87
2021/05/09 02:06:59;;;;;;;10.20;5.75;;;9.50;99.90;;;;;;6253084;23;20090;-87
2021/05/09 02:09:25;;;;;;;10.68;5.32;;;9.50;99.90;;;;;;6216678;23;20040;-86
2021/05/09 02:11:50;;;;;;;8.18;5.35;;;9.40;99.90;;;;;;6242871;23;20020;-88
2021/05/09 02:14:16;;;;;;;11.82;5.93;;;9.40;99.90;;;;;;6243401;23;20016;-87
2021/05/09 02:16:42;;;;;;;7.15;6.07;;;9.30;99.90;;;;;;6242352;23;20020;-86
2021/05/09 02:19:08;;;;;;;15.95;6.80;;;9.30;99.90;;;;;;6216653;23;20117;-87
2021/05/09 02:21:34;;;;;;;6.38;5.18;;;9.20;99.90;;;;;;6190248;23;20020;-86
2021/05/09 02:23:59;;;;;;;9.63;5.60;;;9.20;99.90;;;;;;6243156;23;20086;-87
2021/05/09 02:26:25;;;;;;;16.08;5.82;;;9.10;99.90;;;;;;6191229;23;20430;-87
2021/05/09 02:28:51;;;;;;;9.45;5.68;;;9.10;99.90;;;;;;6215294;23;20020;-87
2021/05/09 02:31:17;;;;;;;6.63;5.22;;;9.00;99.90;;;;;;6216396;23;20366;-87
2021/05/09 02:33:42;;;;;;;13.65;5.22;;;9.00;99.90;;;;;;6215322;23;20035;-87
2021/05/09 02:36:08;;;;;;;11.82;5.68;;;9.00;99.90;;;;;;6243091;23;20429;-87
2021/05/09 02:38:34;;;;;;;9.50;6.20;;;9.00;99.90;;;;;;6190616;23;20385;-87
2021/05/09 02:41:01;;;;;;;9.85;5.57;;;9.00;99.90;;;;;;6216445;23;20027;-87
2021/05/09 02:43:27;;;;;;;9.90;5.95;;;9.00;99.90;;;;;;6215892;23;20016;-87
2021/05/09 02:45:53;;;;;;;9.80;5.10;;;9.00;99.90;;;;;;6193525;22;20515;-87
2021/05/09 02:48:18;;;;;;;10.98;5.55;;;8.90;99.90;;;;;;6242647;23;20020;-87
2021/05/09 02:50:44;;;;;;;11.48;6.15;;;8.90;99.90;;;;;;6190095;23;20464;-87
2021/05/09 02:53:10;;;;;;;16.60;6.10;;;8.90;99.90;;;;;;6242972;23;20020;-87
2021/05/09 02:55:36;;;;;;;11.77;6.03;;;8.90;99.90;;;;;;6241921;23;20333;-87
2021/05/09 02:58:02;;;;;;;12.60;6.05;;;8.90;99.90;;;;;;6215454;23;20390;-87
2021/05/09 03:00:28;;;;;;;10.02;5.90;;;8.90;99.90;;;;;;6241803;23;20016;-87
2021/05/09 03:02:53;;;;;;;10.10;5.10;;;8.90;99.90;;;;;;6241552;23;20020;-87
2021/05/09 03:05:19;;;;;;;8.93;5.05;;;8.90;99.90;;;;;;6242088;23;20016;-87
2021/05/09 03:07:45;;;;;;;11.13;5.47;;;9.00;99.90;;;;;;6214678;23;20039;-87
2021/05/09 03:10:11;;;;;;;16.13;5.97;;;8.90;99.90;;;;;;6216042;23;20024;-87
2021/05/09 03:12:37;;;;;;;10.90;5.88;;;8.90;99.90;;;;;;6214681;23;20027;-87
2021/05/09 03:15:03;;;;;;;10.25;5.53;;;8.90;99.90;;;;;;6215045;23;20020;-87
2021/05/09 03:17:31;;;;;;;7.43;5.72;;;8.90;99.90;;;;;;6242051;23;20320;-88
2021/05/09 03:19:57;;;;;;;10.82;5.45;;;9.00;99.90;;;;;;6214479;23;20025;-87
2021/05/09 03:22:23;;;;;;;7.00;4.82;;;8.90;99.90;;;;;;6215239;23;20381;-87
2021/05/09 03:24:48;;;;;;;15.25;6.32;;;8.90;99.90;;;;;;6214469;23;20020;-87
2021/05/09 03:27:14;;;;;;;11.93;5.75;;;9.00;99.90;;;;;;6215155;23;20347;-87
2021/05/09 03:29:40;;;;;;;7.35;5.10;;;9.00;99.90;;;;;;6214560;23;20016;-87
2021/05/09 03:32:06;;;;;;;12.60;4.90;;;9.10;99.90;;;;;;6164355;23;20024;-87
2021/05/09 03:34:32;;;;;;;8.35;5.50;;;9.10;99.90;;;;;;6214090;23;20381;-87
2021/05/09 03:36:58;;;;;;;16.02;6.10;;;9.10;99.90;;;;;;6189924;23;20027;-87
2021/05/09 03:39:24;;;;;;;9.23;4.57;;;9.10;99.90;;;;;;6215942;23;20020;-86
2021/05/09 03:41:49;;;;;;;10.70;5.10;;;9.10;99.90;;;;;;6189236;23;20569;-87
2021/05/09 03:44:15;;;;;;;8.60;4.68;;;9.10;99.90;;;;;;6216061;23;20047;-87
2021/05/09 03:46:41;;;;;;;7.82;5.32;;;9.00;99.90;;;;;;6244138;22;20350;-86
2021/05/09 03:49:07;;;;;;;12.82;5.70;;;9.00;99.90;;;;;;6242381;23;20016;-87
2021/05/09 03:51:33;;;;;;;11.32;5.18;;;9.10;99.90;;;;;;6241374;23;20039;-87
2021/05/09 03:53:59;;;;;;;5.82;5.00;;;9.10;99.90;;;;;;6190577;23;20049;-87
2021/05/09 03:56:25;;;;;;;10.38;4.72;;;9.10;99.90;;;;;;6215608;23;20126;-86
2021/05/09 03:58:51;;;;;;;13.55;6.32;;;9.10;99.90;;;;;;6214520;23;20093;-86
2021/05/09 04:01:17;;;;;;;9.98;5.47;;;9.10;99.90;;;;;;6214900;23;20411;-86
2021/05/09 04:03:42;;;;;;;15.38;5.53;;;9.10;99.90;;;;;;6214148;23;20044;-87
2021/05/09 04:06:08;;;;;;;10.50;5.25;;;9.10;99.90;;;;;;6241685;23;20438;-86
2021/05/09 04:08:34;;;;;;;6.88;5.47;;;9.10;99.90;;;;;;6190096;23;20023;-86
2021/05/09 04:11:02;;;;;;;9.75;5.63;;;9.20;99.90;;;;;;6189794;23;20520;-86
2021/05/09 04:13:28;;;;;;;13.07;5.72;;;9.30;99.90;;;;;;6215561;23;20492;-87
2021/05/09 04:15:54;;;;;;;12.15;5.25;;;9.30;99.90;;;;;;6189598;23;20110;-87
2021/05/09 04:18:20;;;;;;;9.13;5.55;;;9.40;99.90;;;;;;6215392;23;20095;-87
2021/05/09 04:20:46;;;;;;;11.80;5.13;;;9.50;99.90;;;;;;6189383;23;20019;-86
2021/05/09 04:23:17;;;;;;;10.98;4.97;;;9.50;99.90;;;;;;6215104;23;20347;-88
2021/05/09 04:25:51;;;;;;;8.57;4.90;;;9.50;99.90;;;;;;6213525;23;20381;-88
2021/05/09 04:28:21;;;;;;;10.20;4.90;;;9.50;99.90;;;;;;6214779;23;20016;-87
2021/05/09 04:30:48;;;;;;;9.85;4.50;;;9.50;99.90;;;;;;6214580;23;20135;-88
2021/05/09 04:33:16;;;;;;;11.35;4.95;;;9.60;99.90;;;;;;6215238;23;20150;-88
2021/05/09 04:35:43;;;;;;;10.15;5.13;;;9.60;99.90;;;;;;6214263;23;20035;-87
2021/05/09 04:38:10;;;;;;;10.30;4.97;;;9.60;99.90;;;;;;6214932;23;20099;-88
2021/05/09 04:40:36;;;;;;;7.95;5.15;;;9.70;99.90;;;;;;6241217;23;20338;-88
2021/05/09 04:43:16;;;;;;;9.35;5.22;;;9.60;99.90;;;;;;6241280;23;20024;-89
2021/05/09 04:45:53;;;;;;;9.90;5.53;;;9.70;99.90;;;;;;6223729;23;20042;-88
2021/05/09 04:48:19;;;;;;;10.35;5.55;;;9.80;99.90;;;;;;6244042;22;20071;-88
2021/05/09 04:50:45;;;;;;;9.05;5.63;;;9.90;99.90;;;;;;6244384;22;20019;-86
2021/05/09 04:53:32;;;;;;;11.43;5.55;;;9.90;99.90;;;;;;6272065;22;20020;-86
2021/05/09 04:56:00;;;;;;;9.65;4.80;;;10.00;99.90;;;;;;6219467;22;20011;-86
2021/05/09 04:58:27;;;;;;;10.63;5.03;;;10.20;99.90;;;;;;6245330;22;20090;-86
2021/05/09 05:01:00;;;;;;;12.68;5.50;;;10.30;99.90;;;;;;6218420;22;20043;-87
2021/05/09 05:03:27;;;;;;;12.02;5.43;;;10.30;99.90;;;;;;6272116;22;20019;-87
2021/05/09 05:05:52;;;;;;;9.38;5.13;;;10.50;99.90;;;;;;6219227;22;20038;-88
2021/05/09 05:08:18;;;;;;;10.48;4.82;;;10.60;99.90;;;;;;6219868;22;20437;-87
2021/05/09 05:10:44;;;;;;;13.40;5.65;;;10.70;99.90;;;;;;6271316;22;20016;-87
2021/05/09 05:13:18;;;;;;;7.22;5.35;;;10.80;99.90;;;;;;6272043;22;20016;-87
2021/05/09 05:15:45;;;;;;;11.40;5.20;;;10.80;99.90;;;;;;6271371;22;20018;-86
2021/05/09 05:18:11;;;;;;;12.98;5.75;;;10.90;99.90;;;;;;6244975;22;20027;-87
2021/05/09 05:20:37;;;;;;;10.20;5.22;;;11.00;99.90;;;;;;6271867;22;20015;-87
2021/05/09 05:23:03;;;;;;;11.70;5.10;;;11.00;99.90;;;;;;6219326;22;20027;-87
2021/05/09 05:25:29;;;;;;;13.65;6.20;;;11.10;99.90;;;;;;6245491;22;20023;-87
2021/05/09 05:27:54;;;;;;;7.88;5.28;;;11.10;99.90;;;;;;6244097;22;20020;-87
2021/05/09 05:30:21;;;;;;;11.40;5.88;;;11.20;99.90;;;;;;6271777;22;20338;-86
2021/05/09 05:32:47;;;;;;;8.40;5.22;;;11.30;99.90;;;;;;6271067;22;20044;-86
2021/05/09 05:35:14;;;;;;;11.68;5.43;;;11.30;99.90;;;;;;6272251;22;20015;-88
2021/05/09 05:37:40;;;;;;;9.50;5.38;;;11.40;99.90;;;;;;6245051;22;20077;-88
2021/05/09 05:40:06;;;;;;;10.55;5.30;;;11.50;99.90;;;;;;6246041;22;20012;-87
2021/05/09 05:42:32;;;;;;;11.07;5.20;;;11.50;99.90;;;;;;6274188;22;20012;-88
2021/05/09 05:44:58;;;;;;;11.65;5.97;;;11.60;99.90;;;;;;6272930;22;20118;-88
2021/05/09 05:47:24;;;;;;;8.77;5.60;;;11.70;99.90;;;;;;6260174;22;20016;-89
2021/05/09 05:49:54;;;;;;;13.02;5.75;;;11.80;99.90;;;;;;6242824;23;20095;-88
2021/05/09 05:52:20;;;;;;;;;;;11.80;99.90;;;;;;6254163;23;20016;-87
2021/05/09 05:54:46;;;;;;;12.38;5.40;;;11.90;99.90;;;;;;6215222;23;19915;-86
2021/05/09 05:57:13;;;;;;;20.83;6.35;;;12.00;99.90;;;;;;6243515;23;20090;-87
2021/05/09 05:59:39;;;;;;;14.30;5.18;;;12.00;99.90;;;;;;6191112;23;20028;-87
2021/05/09 06:02:05;;;;;;;12.57;5.15;;;12.10;99.90;;;;;;6216034;23;20035;-89
2021/05/09 06:04:30;;;;;;;12.13;5.13;;;12.20;99.90;;;;;;6216556;23;20020;-88
2021/05/09 06:06:56;;;;;;;8.13;4.78;;;12.30;99.90;;;;;;6241926;23;20020;-87
2021/05/09 06:09:22;;;;;;;12.70;5.28;;;12.40;99.90;;;;;;6191819;23;20458;-88
2021/05/09 06:11:48;;;;;;;10.20;5.30;;;12.50;99.90;;;;;;6215910;23;20024;-87
2021/05/09 06:14:13;;;;;;;7.38;5.30;;;12.60;99.90;;;;;;6216198;23;20035;-88
2021/05/09 06:16:39;;;;;;;10.57;4.82;;;12.70;99.90;;;;;;6216728;23;20016;-88
2021/05/09 06:19:05;;;;;;;10.80;5.10;;;12.80;99.90;;;;;;6215021;23;20019;-87
2021/05/09 06:21:31;;;;;;;13.65;5.38;;;12.80;99.90;;;;;;6243512;23;20472;-87
2021/05/09 06:23:57;;;;;;;10.98;5.85;;;12.90;99.90;;;;;;6190308;23;20095;-87
2021/05/09 06:26:23;;;;;;;7.32;4.25;;;12.90;99.90;;;;;;6215821;23;20012;-87
2021/05/09 06:28:48;;;;;;;9.55;4.60;;;13.00;99.90;;;;;;6215585;23;20020;-86
2021/05/09 06:31:14;;;;;;;9.35;4.70;;;13.10;99.90;;;;;;6166279;23;20335;-87
2021/05/09 06:33:40;;;;;;;12.23;4.93;;;13.10;99.90;;;;;;6216133;23;20370;-88
2021/05/09 06:36:06;;;;;;;12.75;6.50;;;13.20;99.90;;;;;;6241646;23;20098;-87
2021/05/09 06:38:32;;;;;;;7.18;5.35;;;13.30;99.90;;;;;;6215899;23;20021;-88
2021/05/09 06:40:58;;;;;;;9.18;4.60;;;13.50;99.90;;;;;;6215692;23;20118;-88
2021/05/09 06:43:24;;;;;;;6.97;4.47;;;13.60;99.90;;;;;;6216379;23;20046;-87
2021/05/09 06:45:50;;;;;;;12.23;4.55;;;13.70;99.90;;;;;;6216254;23;20022;-88
2021/05/09 06:48:16;;;;;;;9.65;4.60;;;13.80;99.90;;;;;;6240523;22;20026;-90
2021/05/09 06:50:42;;;;;;;7.10;4.28;;;13.90;99.90;;;;;;6273729;22;20043;-88
2021/05/09 06:53:08;;;;;;;7.40;4.00;;;14.00;99.90;;;;;;6272614;22;20178;-88
2021/05/09 06:55:37;;;;;;;10.00;4.47;;;14.10;99.90;;;;;;6274290;22;20468;-87
2021/05/09 06:58:07;;;;;;;9.38;4.32;;;14.20;99.90;;;;;;6245894;22;20015;-87
2021/05/09 07:00:33;;;;;;;7.30;4.35;;;14.40;99.90;;;;;;6245526;22;20024;-88
2021/05/09 07:02:59;;;;;;;6.75;4.05;;;14.40;99.90;;;;;;6244820;22;20019;-88
2021/05/09 07:05:25;;;;;;;7.35;4.05;;;14.50;99.90;;;;;;6220439;22;20073;-87
2021/05/09 07:07:55;;;;;;;6.25;3.88;;;14.50;99.90;;;;;;6272661;22;20384;-87
2021/05/09 07:10:24;;;;;;;7.95;4.20;;;14.60;99.90;;;;;;6243976;22;20019;-87
2021/05/09 07:12:51;;;;;;;8.13;4.75;;;14.70;99.90;;;;;;6271473;22;20067;-87
2021/05/09 07:15:25;;;;;;;11.93;3.83;;;14.80;99.90;;;;;;6271852;22;20023;-88
2021/05/09 07:18:02;;;;;;;8.13;3.25;;;14.90;99.90;;;;;;6246866;22;20026;-87
2021/05/09 07:20:30;;;;;;;11.10;4.00;;;15.00;99.90;;;;;;6272641;22;20434;-88
2021/05/09 07:22:57;;;;;;;12.43;3.80;;;15.00;99.90;;;;;;6267839;22;20047;-90
2021/05/09 07:25:23;;;;;;;7.15;3.72;;;15.10;99.90;;;;;;6270910;22;20036;-91
2021/05/09 07:27:49;;;;;;;7.47;4.00;;;15.20;99.90;;;;;;6271625;22;20015;-90
2021/05/09 07:30:15;;;;;;;5.22;3.67;;;15.30;99.90;;;;;;6270952;22;20073;-91
2021/05/09 07:32:41;;;;;;;7.05;3.50;;;15.40;99.90;;;;;;6270713;22;20034;-89
2021/05/09 07:35:08;;;;;;;11.65;4.00;;;15.40;99.90;;;;;;6244652;22;20043;-91
2021/05/09 07:37:33;;;;;;;7.10;3.28;;;15.50;99.90;;;;;;6272527;22;20024;-88
2021/05/09 07:39:59;;;;;;;5.22;3.30;;;15.50;99.90;;;;;;6270321;22;20019;-90
2021/05/09 07:42:25;;;;;;;6.97;3.53;;;15.60;99.90;;;;;;6245465;22;20077;-91
2021/05/09 07:44:56;;;;;;;7.28;3.33;;;15.70;99.90;;;;;;6245362;22;20501;-88
2021/05/09 07:47:23;;;;;;;5.88;3.50;;;15.80;99.90;;;;;;6226529;22;20026;-87
2021/05/09 07:49:49;;;;;;;5.85;3.28;;;15.90;99.90;;;;;;6272728;22;20016;-89
2021/05/09 07:52:15;;;;;;;5.70;3.03;;;15.90;99.90;;;;;;6219269;22;20039;-88
2021/05/09 07:54:40;;;;;;;9.00;3.50;;;15.90;99.90;;;;;;6272526;22;20442;-88
2021/05/09 07:57:06;;;;;;;7.95;3.35;;;16.00;99.90;;;;;;6219315;22;20022;-87
2021/05/09 07:59:34;;;;;;;12.45;3.78;;;16.00;99.90;;;;;;6272245;22;20012;-88
2021/05/09 08:02:00;;;;;;;6.05;2.97;;;16.00;99.90;;;;;;6271278;22;20472;-88
2021/05/09 08:04:26;;;;;;;9.18;2.90;;;16.10;99.90;;;;;;6272434;22;20098;-88
2021/05/09 08:06:52;;;;;;;5.25;3.28;;;16.10;99.90;;;;;;6272165;22;20044;-88
2021/05/09 08:09:18;;;;;;;7.43;2.78;;;16.10;99.90;;;;;;6218337;22;20115;-88
2021/05/09 08:11:44;;;;;;;6.30;3.03;;;16.20;99.90;;;;;;6272148;22;20015;-89
2021/05/09 08:14:10;;;;;;;7.38;3.33;;;16.30;99.90;;;;;;6271611;22;20016;-88
2021/05/09 08:16:35;;;;;;;4.80;2.92;;;16.40;99.90;;;;;;6272546;22;20011;-89
2021/05/09 08:19:01;;;;;;;7.13;2.72;;;16.40;99.90;;;;;;6269793;22;20060;-89
2021/05/09 08:21:27;;;;;;;5.22;2.85;;;16.50;99.90;;;;;;6245445;22;20026;-87
2021/05/09 08:23:53;;;;;;;10.95;3.63;;;16.50;99.90;;;;;;6219723;22;20332;-88
2021/05/09 08:26:19;;;;;;;8.68;3.10;;;16.50;99.90;;;;;;6193373;22;20012;-88
2021/05/09 08:28:45;;;;;;;8.77;3.50;;;16.60;99.90;;;;;;6244687;22;20038;-89
2021/05/09 08:31:13;;;;;;;12.50;4.10;;;16.60;99.90;;;;;;6243894;22;20022;-88
2021/05/09 08:33:38;;;;;;;7.82;3.67;;;16.80;99.90;;;;;;6271727;22;20026;-88
2021/05/09 08:36:04;;;;;;;6.90;3.22;;;16.80;99.90;;;;;;6270723;22;20357;-88
2021/05/09 08:38:30;;;;;;;6.97;3.35;;;17.00;99.90;;;;;;6272197;22;20020;-88
2021/05/09 08:40:58;;;;;;;5.57;3.20;;;17.10;99.90;;;;;;6271764;22;20015;-88
2021/05/09 08:43:24;;;;;;;10.73;3.17;;;17.20;99.90;;;;;;6244902;22;20015;-89
2021/05/09 08:45:50;;;;;;;6.78;3.28;;;17.30;99.90;;;;;;6270510;22;20055;-88
2021/05/09 08:48:19;;;;;;;5.18;3.50;;;17.40;99.90;;;;;;6218111;22;20461;-90
2021/05/09 08:50:46;;;;;;;5.30;3.42;;;17.60;99.90;;;;;;6245430;22;20194;-89
2021/05/09 08:53:16;;;;;;;3.70;2.83;;;17.70;99.90;;;;;;6271304;22;20095;-89
2021/05/09 08:55:42;;;;;;;5.90;3.00;;;17.80;99.90;;;;;;6271999;22;20468;-88
2021/05/09 08:58:09;;;;;;;4.20;2.67;;;17.90;99.90;;;;;;6194114;22;20015;-90
2021/05/09 09:00:35;;;;;;;2.85;2.50;;;18.10;99.90;;;;;;6271925;22;20023;-89
2021/05/09 09:03:02;;;;;;;5.38;2.50;;;18.20;99.90;;;;;;6271668;22;20027;-87
2021/05/09 09:05:39;;;;;;;8.98;2.70;;;18.30;99.90;;;;;;6271937;22;20025;-90
2021/05/09 09:08:06;;;;;;;4.10;2.92;;;18.40;99.90;;;;;;6270624;22;20011;-88
2021/05/09 09:10:40;;;;;;;3.15;2.38;;;18.50;99.90;;;;;;6271965;22;20022;-88
2021/05/09 09:13:25;;;;;;;3.55;2.50;;;18.50;99.90;;;;;;6269522;22;20023;-90
2021/05/09 09:15:57;;;;;;;6.88;2.92;;;18.70;99.90;;;;;;6271976;22;20024;-90
2021/05/09 09:18:33;;;;;;;3.22;2.00;;;18.80;99.90;;;;;;6271230;22;20019;-89
2021/05/09 09:21:18;;;;;;;7.20;2.72;;;18.90;99.90;;;;;;6244850;22;20020;-89
2021/05/09 09:23:46;;;;;;;6.22;2.00;;;19.10;99.90;;;;;;6271667;22;20016;-90
2021/05/09 09:26:41;;;;;;;6.35;2.50;;;19.30;99.90;;;;;;6243596;22;20133;-90
2021/05/09 09:29:25;;;;;;;5.35;2.03;;;19.50;99.90;;;;;;6271117;22;20016;-88
2021/05/09 09:32:02;;;;;;;6.30;2.63;;;19.60;99.90;;;;;;6279066;22;20069;-89
2021/05/09 09:34:44;;;;;;;2.67;2.38;;;19.70;99.90;;;;;;6280874;22;20047;-90
2021/05/09 09:37:12;;;;;;;4.15;2.05;;;19.80;99.90;;;;;;6228465;22;20442;-88
2021/05/09 09:40:00;;;;;;;5.22;1.83;;;20.00;99.90;;;;;;6271663;22;20446;-88
2021/05/09 09:42:44;;;;;;;3.45;1.88;;;20.00;99.90;;;;;;6253779;22;20083;-88
2021/05/09 09:45:30;;;;;;;4.20;1.67;;;20.20;99.90;;;;;;6280569;22;20065;-88
2021/05/09 09:48:01;;;;;;;2.75;1.50;;;20.20;99.90;;;;;;6242886;23;20024;-89
2021/05/09 09:50:43;;;;;;;3.95;1.65;;;20.20;99.90;;;;;;6248901;23;20111;-89
2021/05/09 09:53:35;;;;;;;4.30;1.63;;;20.10;99.90;;;;;;6250016;22;20020;-89
2021/05/09 09:56:08;;;;;;;5.00;1.70;;;20.00;99.90;;;;;;6240481;22;20019;-89
2021/05/09 09:58:44;;;;;;;3.85;1.55;;;19.90;99.90;;;;;;6251252;23;20346;-88
2021/05/09 10:01:12;;;;;;;9.55;1.98;;;19.80;99.90;;;;;;6248798;23;20027;-89
2021/05/09 10:03:38;;;;;;;5.53;1.70;;;19.70;99.90;;;;;;6214047;23;20024;-90
2021/05/09 10:06:05;;;;;;;7.15;1.73;;;19.40;99.90;;;;;;6241442;22;20452;-90
2021/05/09 10:08:33;;;;;;;3.75;1.77;;;19.20;99.90;;;;;;6239764;22;20450;-90
2021/05/09 10:11:01;;;;;;;4.22;1.90;;;19.00;99.90;;;;;;6239728;23;20027;-89
2021/05/09 10:13:28;;;;;;;6.10;2.25;;;18.70;99.90;;;;;;6240243;22;20087;-92
2021/05/09 10:15:54;;;;;;;3.30;2.25;;;18.40;99.90;;;;;;6240832;22;20518;-91
2021/05/09 10:18:21;;;;;;;7.13;2.63;;;18.00;99.90;;;;;;6239003;23;20090;-91
2021/05/09 10:20:48;;;;;;;5.20;2.08;;;17.80;99.90;;;;;;6236864;22;20026;-90
2021/05/09 10:23:14;;;;;;;6.63;2.75;;;17.60;99.90;;;;;;6234299;23;20020;-91
2021/05/09 10:25:50;;;;;;;2.65;1.77;;;17.40;99.90;;;;;;6211500;23;20043;-89
2021/05/09 10:28:18;;;;;;;47.38;5.30;;;17.30;99.90;;;;;;6248375;22;20039;-91
2021/05/09 10:30:48;;;;;;;12.35;2.95;;;17.10;99.90;;;;;;6237744;23;20091;-88
2021/05/09 10:33:42;;;;;;;8.43;2.65;;;17.00;99.90;;;;;;6239996;23;20035;-89
2021/05/09 10:36:33;;;;;;;6.95;2.53;;;16.80;99.90;;;;;;6241253;23;20016;-87
2021/05/09 10:39:11;;;;;;;7.68;3.10;;;16.70;99.90;;;;;;6242755;22;20016;-87
2021/05/09 10:41:58;;;;;;;6.32;2.72;;;16.70;99.90;;;;;;6241618;22;20013;-86
2021/05/09 10:44:47;;;;;;;4.00;2.13;;;16.50;99.90;;;;;;6242350;22;20012;-86
2021/05/09 10:47:19;;;;;;;5.88;2.40;;;16.40;99.90;;;;;;6244733;22;20023;-86
2021/05/09 10:50:14;;;;;;;9.82;2.50;;;16.40;99.90;;;;;;6252386;23;20043;-87
2021/05/09 10:52:44;;;;;;;4.85;2.22;;;16.50;99.90;;;;;;6204772;23;20104;-87
2021/05/09 10:55:35;;;;;;;4.68;2.10;;;16.70;99.90;;;;;;6242525;23;20105;-86
2021/05/09 10:58:05;;;;;;;4.25;2.65;;;17.00;99.90;;;;;;6215874;23;20381;-87
2021/05/09 11:00:56;;;;;;;2.65;2.00;;;17.30;99.90;;;;;;6251613;23;20017;-86
2021/05/09 11:03:39;;;;;;;3.60;1.80;;;17.80;99.90;;;;;;6241573;23;20442;-87
2021/05/09 11:06:06;;;;;;;5.72;1.50;;;18.30;99.90;;;;;;6215069;23;20450;-87
2021/05/09 11:08:45;;;;;;;4.90;1.70;;;18.60;99.90;;;;;;6214663;23;20035;-87
2021/05/09 11:11:33;;;;;;;3.05;1.55;;;19.10;99.90;;;;;;6215648;23;20019;-88
2021/05/09 11:16:33;;;;;;;3.08;1.52;;;19.60;99.90;;;;;;6239952;23;20012;-88
2021/05/09 11:19:10;;;;;;;2.55;1.25;;;19.90;99.90;;;;;;6238421;23;20091;-87
2021/05/09 11:21:38;;;;;;;1.90;1.05;;;20.10;99.90;;;;;;6250206;23;20709;-87
2021/05/09 11:24:06;;;;;;;2.40;1.08;;;20.50;99.90;;;;;;6215356;23;20016;-87
2021/05/09 11:26:40;;;;;;;11.27;1.30;;;20.80;99.90;;;;;;6213487;23;20917;-88
2021/05/09 11:29:14;;;;;;;6.03;1.40;;;21.10;99.90;;;;;;6251430;23;20039;-87
2021/05/09 11:31:42;;;;;;;7.00;1.35;;;21.40;99.90;;;;;;6240840;23;20016;-88
2021/05/09 11:34:09;;;;;;;3.35;1.40;;;21.60;99.90;;;;;;6241657;23;20020;-88
2021/05/09 11:36:36;;;;;;;1.55;1.45;;;21.80;99.90;;;;;;6188001;23;20023;-89
2021/05/09 11:39:12;;;;;;;2.55;1.20;;;21.90;99.90;;;;;;6241732;23;20090;-88
2021/05/09 11:41:57;;;;;;;3.13;1.63;;;22.00;99.90;;;;;;6250891;23;20012;-88
2021/05/09 11:44:25;;;;;;;2.08;1.00;;;22.00;99.90;;;;;;6214010;23;20020;-87
2021/05/09 11:46:52;;;;;;;2.55;1.02;;;22.00;99.90;;;;;;6241402;22;20390;-89
2021/05/09 11:49:26;;;;;;;1.10;0.80;;;21.90;99.90;;;;;;6251554;23;20426;-86
2021/05/09 11:52:03;;;;;;;2.83;1.13;;;21.90;99.90;;;;;;6251395;23;20020;-90
2021/05/09 11:54:44;;;;;;;2.83;1.10;;;21.80;99.90;;;;;;6240615;23;20460;-89
2021/05/09 11:57:10;;;;;;;4.70;0.80;;;21.80;99.90;;;;;;6252000;23;20500;-90
2021/05/09 11:59:37;;;;;;;9.85;1.13;;;21.80;99.90;;;;;;6240898;23;20024;-89
2021/05/09 12:02:25;;;;;;;4.85;1.00;;;21.90;99.90;;;;;;6214075;23;20023;-89
2021/05/09 12:05:04;;;;;;;1.65;1.00;;;22.00;99.90;;;;;;6214841;23;20024;-90
2021/05/09 12:07:35;;;;;;;2.28;0.90;;;22.10;99.90;;;;;;6240494;23;20460;-90
2021/05/09 12:10:11;;;;;;;3.92;1.40;;;22.20;99.90;;;;;;6215061;23;20366;-90
2021/05/09 12:12:38;;;;;;;2.47;0.98;;;22.40;99.90;;;;;;6250913;23;20020;-90
2021/05/09 12:15:11;;;;;;;2.58;1.02;;;22.40;99.90;;;;;;6242209;23;20023;-89
2021/05/09 12:17:57;;;;;;;1.85;1.02;;;22.50;99.90;;;;;;6240990;23;20465;-90
2021/05/09 12:20:28;;;;;;;1.55;0.70;;;22.60;99.90;;;;;;6250779;23;20016;-88
2021/05/09 12:22:56;;;;;;;4.07;0.95;;;22.60;99.90;;;;;;6224740;23;20457;-88
2021/05/09 12:25:37;;;;;;;5.38;1.13;;;22.70;99.90;;;;;;6214332;23;20023;-87
2021/05/09 12:28:12;;;;;;;3.38;0.80;;;22.70;99.90;;;;;;6224323;23;20023;-89
2021/05/09 12:30:39;;;;;;;3.55;1.15;;;22.80;99.90;;;;;;6250934;23;20745;-88
2021/05/09 12:33:05;;;;;;;1.60;0.77;;;22.90;99.90;;;;;;6214072;23;20016;-91
2021/05/09 12:36:13;;;;;;;4.65;0.80;;;23.20;99.90;;;;;;6189269;23;20024;-91
2021/05/09 12:38:39;;;;;;;1.92;0.90;;;23.60;99.90;;;;;;6225482;23;20016;-93
2021/05/09 12:41:13;;;;;;;1.65;0.80;;;24.10;99.90;;;;;;6214916;23;20027;-89
2021/05/09 12:43:59;;;;;;;4.63;0.68;;;24.40;99.90;;;;;;6240305;23;20401;-90
2021/05/09 12:46:47;;;;;;;2.63;0.50;;;24.80;99.90;;;;;;6239202;23;20020;-91
2021/05/09 12:49:24;;;;;;;1.52;0.70;;;25.00;99.90;;;;;;6240899;23;20016;-90
2021/05/09 12:51:50;;;;;;;1.67;0.60;;;24.90;99.90;;;;;;6189349;23;20074;-90
2021/05/09 12:54:42;;;;;;;2.00;0.52;;;24.80;99.90;;;;;;6241422;23;20427;-91
2021/05/09 12:57:18;;;;;;;1.48;0.85;;;24.70;99.90;;;;;;6241354;23;20051;-90
2021/05/09 12:59:57;;;;;;;5.03;0.90;;;24.50;99.90;;;;;;6240372;23;20008;-91
2021/05/09 13:02:28;;;;;;;;;;;24.40;99.90;;;;;;6227013;23;20016;-87